You are listening to:
KBOS Tower - Boston, Massachusetts, United States

KBOS 051754Z 26005KT 10SM FEW140 BKN250 08/M07 A3036 RMK AO2 SLP281 T00781072 10078 20033 56008

If stream doesn't start automatically press the play button
If stream stops then reload player then press play